createdAt,value
2022-08-23T00:00:16.241Z,100.00
2022-08-23T00:02:44.814Z,100.00
2022-08-23T00:05:11.541Z,100.00
2022-08-23T00:07:38.590Z,100.00
2022-08-23T00:10:05.163Z,100.00
2022-08-23T00:12:31.423Z,100.00
2022-08-23T00:14:57.719Z,100.00
2022-08-23T00:17:34.457Z,100.00
2022-08-23T00:20:01.226Z,100.00
2022-08-23T00:22:27.650Z,100.00
2022-08-23T00:24:53.964Z,100.00
2022-08-23T00:27:20.214Z,100.00
2022-08-23T00:29:46.443Z,100.00
2022-08-23T00:32:12.733Z,100.00
2022-08-23T00:34:39.193Z,100.00
2022-08-23T00:37:05.434Z,100.00
2022-08-23T00:39:31.696Z,100.00
2022-08-23T00:41:57.943Z,100.00
2022-08-23T00:44:24.156Z,100.00
2022-08-23T00:46:50.399Z,100.00
2022-08-23T00:49:16.659Z,100.00
2022-08-23T00:51:52.208Z,100.00
2022-08-23T00:54:19.136Z,100.00
2022-08-23T00:56:45.406Z,100.00
2022-08-23T00:59:11.635Z,100.00
2022-08-23T01:01:37.968Z,100.00
2022-08-23T01:04:05.179Z,100.00
2022-08-23T01:06:31.586Z,100.00
2022-08-23T01:08:57.806Z,100.00
2022-08-23T01:11:24.043Z,100.00
2022-08-23T01:13:50.270Z,100.00
2022-08-23T01:16:16.539Z,100.00
2022-08-23T01:18:42.796Z,100.00
2022-08-23T01:21:10.535Z,100.00
2022-08-23T01:23:36.996Z,100.00
2022-08-23T01:26:03.247Z,100.00
2022-08-23T01:28:29.475Z,100.00
2022-08-23T01:30:55.705Z,100.00
2022-08-23T01:33:22.054Z,100.00
2022-08-23T01:35:48.776Z,100.00
2022-08-23T01:38:15.025Z,100.00
2022-08-23T01:40:41.274Z,100.00
2022-08-23T01:43:07.575Z,100.00
2022-08-23T01:45:33.809Z,100.00
2022-08-23T01:48:00.159Z,100.00
2022-08-23T01:50:26.593Z,100.00
2022-08-23T01:52:52.903Z,100.00
2022-08-23T01:55:19.163Z,100.00
2022-08-23T01:57:45.522Z,100.00
2022-08-23T02:00:14.549Z,100.00
2022-08-23T02:02:40.920Z,100.00
2022-08-23T02:05:07.174Z,100.00
2022-08-23T02:07:33.416Z,100.00
2022-08-23T02:09:59.688Z,100.00
2022-08-23T02:12:25.977Z,100.00
2022-08-23T02:14:52.224Z,100.00
2022-08-23T02:17:18.456Z,100.00
2022-08-23T02:19:44.772Z,100.00
2022-08-23T02:22:11.015Z,100.00
2022-08-23T02:24:37.251Z,100.00
2022-08-23T02:27:03.540Z,100.00
2022-08-23T02:29:31.325Z,100.00
2022-08-23T02:31:57.553Z,100.00
2022-08-23T02:34:36.070Z,100.00
2022-08-23T02:37:02.348Z,100.00
2022-08-23T02:39:28.593Z,100.00
2022-08-23T02:41:54.841Z,100.00
2022-08-23T02:44:21.159Z,100.00
2022-08-23T02:46:47.418Z,100.00
2022-08-23T02:49:14.206Z,100.00
2022-08-23T02:51:40.471Z,100.00
2022-08-23T02:54:06.720Z,100.00
2022-08-23T02:56:32.992Z,100.00
2022-08-23T02:58:59.218Z,100.00
2022-08-23T03:01:25.488Z,100.00
2022-08-23T03:03:51.706Z,100.00
2022-08-23T03:06:24.757Z,100.00
2022-08-23T03:08:52.510Z,100.00
2022-08-23T03:11:18.807Z,100.00
2022-08-23T03:13:45.053Z,100.00
2022-08-23T03:16:11.318Z,100.00
2022-08-23T03:18:37.631Z,100.00
2022-08-23T03:21:03.976Z,100.00
2022-08-23T03:23:30.211Z,100.00
2022-08-23T03:25:56.492Z,100.00
2022-08-23T03:28:22.727Z,100.00
2022-08-23T03:30:49.163Z,100.00
2022-08-23T03:33:15.399Z,100.00
2022-08-23T03:35:41.650Z,100.00
2022-08-23T03:38:07.893Z,100.00
2022-08-23T03:40:34.144Z,100.00
2022-08-23T03:43:00.456Z,100.00
2022-08-23T03:45:26.700Z,100.00
2022-08-23T03:47:53.048Z,100.00
2022-08-23T03:50:19.289Z,100.00
2022-08-23T03:52:45.532Z,100.00
2022-08-23T03:55:11.910Z,100.00
2022-08-23T03:57:38.149Z,100.00
2022-08-23T04:00:04.438Z,100.00
2022-08-23T04:02:30.694Z,100.00
2022-08-23T04:04:57.046Z,100.00
2022-08-23T04:07:23.290Z,100.00
2022-08-23T04:09:54.430Z,100.00
2022-08-23T04:12:21.343Z,100.00
2022-08-23T04:14:47.585Z,100.00
2022-08-23T04:17:13.964Z,100.00
2022-08-23T04:19:40.315Z,100.00
2022-08-23T04:22:06.550Z,100.00
2022-08-23T04:24:32.841Z,100.00
2022-08-23T04:26:59.113Z,100.00
2022-08-23T04:29:33.774Z,100.00
2022-08-23T04:32:00.938Z,100.00
2022-08-23T04:34:28.721Z,100.00
2022-08-23T04:36:55.463Z,100.00
2022-08-23T04:39:21.854Z,100.00
2022-08-23T04:41:48.089Z,100.00
2022-08-23T04:44:14.347Z,100.00
2022-08-23T04:46:40.587Z,100.00
2022-08-23T04:49:06.904Z,100.00
2022-08-23T04:51:33.152Z,100.00
2022-08-23T04:53:59.418Z,100.00
2022-08-23T04:56:25.739Z,100.00
2022-08-23T04:58:52.007Z,100.00
2022-08-23T05:01:18.378Z,100.00
2022-08-23T05:03:44.670Z,100.00
2022-08-23T05:06:10.965Z,100.00
2022-08-23T05:08:37.196Z,100.00
2022-08-23T05:11:03.476Z,100.00
2022-08-23T05:13:29.851Z,100.00
2022-08-23T05:15:56.119Z,100.00
2022-08-23T05:18:23.986Z,100.00
2022-08-23T05:20:50.330Z,100.00
2022-08-23T05:23:16.580Z,100.00
2022-08-23T05:25:43.063Z,100.00
2022-08-23T05:28:09.426Z,100.00
2022-08-23T05:30:37.896Z,100.00
2022-08-23T05:33:04.495Z,100.00
2022-08-23T05:35:33.340Z,100.00
2022-08-23T05:37:59.777Z,100.00
2022-08-23T05:40:26.195Z,100.00
2022-08-23T05:42:52.584Z,100.00
2022-08-23T05:45:21.973Z,100.00
2022-08-23T05:47:49.782Z,100.00
2022-08-23T05:50:16.368Z,100.00
2022-08-23T05:52:42.596Z,100.00
2022-08-23T05:55:08.866Z,100.00
2022-08-23T05:57:35.155Z,100.00
2022-08-23T06:00:01.468Z,100.00
2022-08-23T06:02:27.737Z,100.00
2022-08-23T06:04:57.262Z,100.00
2022-08-23T06:07:23.830Z,100.00
2022-08-23T06:09:50.089Z,100.00
2022-08-23T06:12:16.376Z,100.00
2022-08-23T06:14:42.714Z,100.00
2022-08-23T06:17:08.966Z,100.00
2022-08-23T06:19:35.288Z,100.00
2022-08-23T06:22:01.562Z,100.00
2022-08-23T06:24:27.827Z,100.00
2022-08-23T06:26:54.060Z,100.00
2022-08-23T06:29:20.417Z,100.00
2022-08-23T06:31:46.700Z,100.00
2022-08-23T06:34:13.113Z,100.00
2022-08-23T06:36:39.381Z,100.00
2022-08-23T06:39:05.929Z,100.00
2022-08-23T06:41:32.451Z,100.00
2022-08-23T06:43:58.759Z,100.00
2022-08-23T06:46:25.290Z,100.00
2022-08-23T06:48:54.517Z,100.00
2022-08-23T06:51:20.780Z,100.00
2022-08-23T06:53:47.024Z,100.00
2022-08-23T06:56:13.275Z,100.00
2022-08-23T06:58:39.555Z,100.00
2022-08-23T07:01:05.936Z,100.00
2022-08-23T07:03:32.423Z,100.00
2022-08-23T07:06:03.245Z,100.00
2022-08-23T07:08:29.534Z,100.00
2022-08-23T07:10:55.889Z,100.00
2022-08-23T07:13:22.126Z,100.00
2022-08-23T07:15:50.151Z,100.00
2022-08-23T07:18:16.592Z,100.00
2022-08-23T07:20:42.820Z,100.00
2022-08-23T07:23:09.090Z,100.00
2022-08-23T07:25:35.391Z,100.00
2022-08-23T07:28:02.071Z,100.00
2022-08-23T07:30:28.783Z,100.00
2022-08-23T07:32:55.086Z,100.00
2022-08-23T07:35:21.606Z,100.00
2022-08-23T07:37:48.038Z,100.00
2022-08-23T07:40:20.329Z,100.00
2022-08-23T07:42:47.039Z,100.00
2022-08-23T07:45:13.634Z,100.00
2022-08-23T07:47:40.346Z,100.00
2022-08-23T07:50:06.627Z,100.00
2022-08-23T07:52:32.889Z,100.00
2022-08-23T07:54:59.212Z,100.00
2022-08-23T07:57:25.488Z,100.00
2022-08-23T07:59:51.731Z,100.00
2022-08-23T08:02:18.109Z,100.00
2022-08-23T08:04:44.370Z,100.00
2022-08-23T08:07:19.368Z,100.00
2022-08-23T08:09:47.162Z,100.00
2022-08-23T08:12:13.396Z,100.00
2022-08-23T08:14:39.695Z,100.00
2022-08-23T08:17:05.927Z,100.00
2022-08-23T08:19:32.369Z,100.00
2022-08-23T08:21:58.773Z,100.00
2022-08-23T08:24:25.090Z,100.00
2022-08-23T08:26:51.314Z,100.00
2022-08-23T08:29:17.579Z,100.00
2022-08-23T08:31:43.829Z,100.00
2022-08-23T08:34:10.160Z,100.00
2022-08-23T08:36:36.394Z,100.00
2022-08-23T08:39:02.939Z,100.00
2022-08-23T08:41:29.237Z,100.00
2022-08-23T08:43:55.453Z,100.00
2022-08-23T08:46:21.707Z,100.00
2022-08-23T08:48:48.002Z,100.00
2022-08-23T08:51:14.277Z,100.00
2022-08-23T08:53:40.524Z,100.00
2022-08-23T08:56:07.712Z,100.00
2022-08-23T08:58:36.469Z,100.00
2022-08-23T09:01:02.757Z,100.00
2022-08-23T09:03:29.000Z,100.00
2022-08-23T09:05:56.428Z,100.00
2022-08-23T09:08:22.894Z,100.00
2022-08-23T09:10:49.150Z,100.00
2022-08-23T09:13:15.425Z,100.00
2022-08-23T09:15:46.519Z,100.00
2022-08-23T09:18:12.760Z,100.00
2022-08-23T09:20:39.028Z,100.00
2022-08-23T09:23:05.275Z,100.00
2022-08-23T09:25:31.532Z,100.00
2022-08-23T09:27:57.789Z,100.00
2022-08-23T09:30:24.078Z,100.00
2022-08-23T09:32:50.324Z,100.00
2022-08-23T09:35:16.663Z,100.00
2022-08-23T09:37:43.581Z,100.00
2022-08-23T09:40:09.882Z,100.00
2022-08-23T09:42:36.612Z,100.00
2022-08-23T09:45:02.980Z,100.00
2022-08-23T09:47:29.544Z,100.00
2022-08-23T09:49:55.949Z,100.00
2022-08-23T09:52:22.520Z,100.00
2022-08-23T09:54:49.526Z,100.00
2022-08-23T09:57:15.905Z,100.00
2022-08-23T09:59:42.258Z,100.00
2022-08-23T10:02:08.549Z,100.00
2022-08-23T10:04:34.939Z,100.00
2022-08-23T10:07:01.192Z,100.00
2022-08-23T10:09:27.454Z,100.00
2022-08-23T10:11:53.684Z,100.00
2022-08-23T10:14:19.940Z,100.00
2022-08-23T10:16:49.620Z,100.00
2022-08-23T10:19:15.873Z,100.00
2022-08-23T10:21:42.429Z,100.00
2022-08-23T10:24:08.771Z,100.00
2022-08-23T10:26:35.019Z,100.00
2022-08-23T10:29:01.284Z,100.00
2022-08-23T10:31:27.626Z,100.00
2022-08-23T10:33:53.910Z,100.00
2022-08-23T10:36:20.288Z,100.00
2022-08-23T10:38:46.600Z,100.00
2022-08-23T10:41:12.858Z,100.00
2022-08-23T10:43:39.173Z,100.00
2022-08-23T10:46:05.545Z,100.00
2022-08-23T10:48:32.036Z,100.00
2022-08-23T10:50:58.459Z,100.00
2022-08-23T10:53:24.886Z,100.00
2022-08-23T10:55:51.112Z,100.00
2022-08-23T10:58:17.337Z,100.00
2022-08-23T11:00:43.587Z,100.00
2022-08-23T11:03:10.021Z,100.00
2022-08-23T11:05:36.366Z,100.00
2022-08-23T11:08:02.895Z,100.00
2022-08-23T11:10:29.439Z,100.00
2022-08-23T11:12:55.816Z,100.00
2022-08-23T11:15:22.211Z,100.00
2022-08-23T11:17:48.514Z,100.00
2022-08-23T11:20:14.850Z,100.00
2022-08-23T11:22:41.223Z,100.00
2022-08-23T11:25:07.547Z,100.00
2022-08-23T11:27:33.868Z,100.00
2022-08-23T11:30:00.182Z,100.00
2022-08-23T11:32:29.826Z,100.00
2022-08-23T11:34:56.500Z,100.00
2022-08-23T11:37:23.466Z,100.00
2022-08-23T11:39:49.797Z,100.00
2022-08-23T11:42:16.109Z,100.00
2022-08-23T11:44:42.415Z,100.00
2022-08-23T11:47:08.710Z,100.00
2022-08-23T11:49:35.021Z,100.00
2022-08-23T11:52:01.383Z,100.00
2022-08-23T11:54:27.704Z,100.00
2022-08-23T11:56:54.025Z,100.00
2022-08-23T11:59:20.344Z,100.00
2022-08-23T12:01:47.207Z,100.00
2022-08-23T12:04:13.733Z,100.00
2022-08-23T12:06:40.460Z,100.00
2022-08-23T12:09:06.971Z,100.00
2022-08-23T12:11:33.263Z,100.00
2022-08-23T12:13:59.661Z,100.00
2022-08-23T12:16:26.032Z,100.00
2022-08-23T12:18:55.216Z,100.00
2022-08-23T12:21:21.477Z,100.00
2022-08-23T12:23:48.137Z,100.00
2022-08-23T12:26:14.469Z,100.00
2022-08-23T12:28:40.764Z,100.00
2022-08-23T12:31:07.816Z,100.00
2022-08-23T12:33:34.855Z,100.00
2022-08-23T12:36:01.105Z,100.00
2022-08-23T12:38:27.407Z,100.00
2022-08-23T12:40:54.614Z,100.00
2022-08-23T12:43:22.485Z,100.00
2022-08-23T12:45:49.344Z,100.00
2022-08-23T12:48:15.701Z,100.00
2022-08-23T12:50:42.008Z,100.00
2022-08-23T12:53:08.237Z,100.00
2022-08-23T12:55:34.546Z,100.00
2022-08-23T12:58:00.994Z,100.00
2022-08-23T13:00:27.397Z,100.00
2022-08-23T13:02:53.646Z,100.00
2022-08-23T13:05:20.096Z,100.00
2022-08-23T13:07:46.429Z,100.00
2022-08-23T13:10:12.755Z,100.00
2022-08-23T13:12:39.071Z,100.00
2022-08-23T13:15:05.313Z,100.00
2022-08-23T13:17:31.569Z,100.00
2022-08-23T13:19:57.874Z,100.00
2022-08-23T13:22:24.349Z,100.00
2022-08-23T13:25:01.298Z,100.00
2022-08-23T13:27:38.511Z,100.00
2022-08-23T13:30:04.978Z,100.00
2022-08-23T13:32:31.333Z,99.70
2022-08-23T13:34:57.672Z,93.25
2022-08-23T13:37:23.960Z,91.85
2022-08-23T13:39:50.256Z,85.68
2022-08-23T13:42:16.750Z,90.09
2022-08-23T13:44:42.996Z,91.39
2022-08-23T13:47:09.224Z,86.84
2022-08-23T13:49:35.533Z,83.76
2022-08-23T13:54:52.545Z,85.67
2022-08-23T13:57:19.314Z,83.66
2022-08-23T13:59:45.714Z,81.77
2022-08-23T14:02:12.178Z,79.80
2022-08-23T14:04:38.619Z,83.99
2022-08-23T14:07:04.948Z,87.05
2022-08-23T14:09:31.224Z,85.80
2022-08-23T14:11:57.510Z,77.84
2022-08-23T14:14:24.366Z,78.95
2022-08-23T14:16:50.764Z,80.65
2022-08-23T14:19:19.859Z,81.48
2022-08-23T14:22:03.307Z,85.10
2022-08-23T14:24:29.568Z,82.87
2022-08-23T14:26:55.793Z,86.01
2022-08-23T14:29:22.436Z,89.07
2022-08-23T14:31:49.061Z,89.68
2022-08-23T14:34:15.292Z,91.24
2022-08-23T14:36:42.002Z,92.63
2022-08-23T14:39:08.355Z,93.65
2022-08-23T14:41:34.822Z,92.20
2022-08-23T14:44:01.058Z,89.27
2022-08-23T14:46:27.295Z,86.92
2022-08-23T14:48:53.609Z,84.18
2022-08-23T14:51:19.864Z,85.17
2022-08-23T14:53:46.138Z,80.43
2022-08-23T14:56:21.161Z,81.22
2022-08-23T14:58:48.038Z,83.00
2022-08-23T15:01:14.334Z,84.23
2022-08-23T15:03:40.718Z,87.14
2022-08-23T15:06:07.035Z,83.56
2022-08-23T15:08:33.357Z,81.91
2022-08-23T15:13:55.570Z,81.59
2022-08-23T15:16:22.626Z,80.74
2022-08-23T15:18:48.890Z,81.62
2022-08-23T15:21:15.145Z,83.43
2022-08-23T15:23:41.370Z,85.08
2022-08-23T15:26:08.201Z,82.35
2022-08-23T15:28:34.469Z,81.01
2022-08-23T15:31:00.782Z,80.46
2022-08-23T15:33:30.978Z,79.74
2022-08-23T15:35:57.757Z,82.39
2022-08-23T15:38:23.980Z,81.53
2022-08-23T15:40:50.298Z,79.89
2022-08-23T15:43:16.617Z,79.54
2022-08-23T15:45:42.997Z,82.22
2022-08-23T15:48:09.392Z,74.93
2022-08-23T15:50:35.712Z,73.88
2022-08-23T15:53:02.128Z,73.34
2022-08-23T15:55:28.464Z,74.06
2022-08-23T15:57:54.781Z,74.89
2022-08-23T16:00:21.049Z,74.38
2022-08-23T16:03:15.897Z,73.65
2022-08-23T16:05:33.570Z,74.87
2022-08-23T16:07:59.803Z,77.60
2022-08-23T16:10:26.224Z,77.96
2022-08-23T16:12:54.686Z,82.02
2022-08-23T16:15:21.022Z,80.81
2022-08-23T16:17:47.387Z,79.80
2022-08-23T16:20:13.680Z,80.02
2022-08-23T16:22:39.926Z,80.27
2022-08-23T16:25:06.209Z,78.47
2022-08-23T16:27:32.564Z,78.26
2022-08-23T16:29:58.934Z,79.73
2022-08-23T16:32:25.271Z,80.97
2022-08-23T16:34:51.663Z,79.78
2022-08-23T16:37:18.013Z,82.22
2022-08-23T16:39:44.831Z,80.82
2022-08-23T16:42:11.165Z,81.97
2022-08-23T16:44:37.621Z,82.88
2022-08-23T16:47:04.204Z,82.97
2022-08-23T16:49:30.716Z,80.71
2022-08-23T16:51:57.033Z,84.24
2022-08-23T16:54:23.375Z,82.33
2022-08-23T16:56:49.607Z,82.32
2022-08-23T16:59:15.889Z,81.67
2022-08-23T17:01:42.195Z,80.95
2022-08-23T17:04:08.513Z,81.07
2022-08-23T17:06:34.821Z,83.48
2022-08-23T17:09:01.141Z,82.41
2022-08-23T17:11:29.878Z,82.33
2022-08-23T17:13:59.176Z,83.46
2022-08-23T17:16:31.709Z,85.13
2022-08-23T17:18:58.012Z,88.53
2022-08-23T17:21:24.408Z,89.36
2022-08-23T17:23:50.649Z,90.52
2022-08-23T17:26:16.923Z,90.56
2022-08-23T17:28:43.281Z,92.53
2022-08-23T17:31:09.740Z,93.33
2022-08-23T17:33:39.071Z,94.75
2022-08-23T17:36:05.376Z,95.55
2022-08-23T17:38:31.742Z,98.05
2022-08-23T17:40:58.063Z,99.62
2022-08-23T17:43:24.336Z,100.00
2022-08-23T17:45:50.841Z,100.00
2022-08-23T17:48:17.240Z,100.00
2022-08-23T17:50:43.724Z,100.00
2022-08-23T17:53:10.395Z,100.00
2022-08-23T17:55:36.678Z,100.00
2022-08-23T17:58:03.832Z,100.00
2022-08-23T18:00:30.753Z,100.00
2022-08-23T18:02:57.123Z,100.00
2022-08-23T18:05:23.414Z,100.00
2022-08-23T18:07:49.721Z,100.00
2022-08-23T18:10:16.046Z,100.00
2022-08-23T18:12:42.365Z,100.00
2022-08-23T18:15:08.749Z,100.00
2022-08-23T18:17:35.242Z,100.00
2022-08-23T18:20:01.731Z,100.00
2022-08-23T18:22:30.262Z,100.00
2022-08-23T18:24:56.587Z,100.00
2022-08-23T18:27:23.078Z,100.00
2022-08-23T18:29:51.351Z,100.00
2022-08-23T18:32:18.412Z,100.00
2022-08-23T18:34:44.952Z,100.00
2022-08-23T18:37:11.242Z,100.00
2022-08-23T18:39:37.762Z,100.00
2022-08-23T18:42:04.002Z,100.00
2022-08-23T18:44:30.316Z,100.00
2022-08-23T18:46:56.668Z,100.00
2022-08-23T18:49:22.981Z,100.00
2022-08-23T18:51:49.325Z,100.00
2022-08-23T18:54:15.663Z,100.00
2022-08-23T18:56:42.018Z,100.00
2022-08-23T18:59:08.551Z,100.00
2022-08-23T19:01:34.952Z,100.00
2022-08-23T19:04:01.416Z,100.00
2022-08-23T19:06:27.760Z,100.00
2022-08-23T19:08:56.479Z,100.00
2022-08-23T19:11:22.852Z,100.00
2022-08-23T19:13:49.136Z,100.00
2022-08-23T19:16:15.463Z,100.00
2022-08-23T19:18:41.825Z,100.00
2022-08-23T19:21:08.295Z,100.00
2022-08-23T19:23:34.614Z,100.00
2022-08-23T19:26:00.842Z,100.00
2022-08-23T19:28:27.340Z,100.00
2022-08-23T19:30:53.589Z,100.00
2022-08-23T19:33:19.876Z,100.00
2022-08-23T19:35:46.168Z,100.00
2022-08-23T19:38:12.412Z,100.00
2022-08-23T19:40:38.643Z,100.00
2022-08-23T19:43:04.981Z,100.00
2022-08-23T19:45:32.164Z,100.00
2022-08-23T19:47:58.796Z,100.00
2022-08-23T19:50:25.032Z,100.00
2022-08-23T19:52:51.287Z,100.00
2022-08-23T19:55:17.587Z,100.00
2022-08-23T19:57:43.868Z,100.00
2022-08-23T20:00:10.114Z,100.00
2022-08-23T20:02:36.407Z,100.00
2022-08-23T20:05:02.649Z,100.00
2022-08-23T20:07:29.076Z,100.00
2022-08-23T20:09:56.893Z,100.00
2022-08-23T20:12:23.266Z,100.00
2022-08-23T20:14:49.514Z,100.00
2022-08-23T20:17:15.812Z,100.00
2022-08-23T20:19:42.196Z,100.00
2022-08-23T20:22:08.446Z,100.00
2022-08-23T20:24:50.531Z,100.00
2022-08-23T20:27:27.816Z,100.00
2022-08-23T20:29:57.709Z,100.00
2022-08-23T20:32:23.953Z,100.00
2022-08-23T20:34:50.233Z,100.00
2022-08-23T20:37:16.461Z,100.00
2022-08-23T20:39:42.754Z,100.00
2022-08-23T20:42:08.996Z,100.00
2022-08-23T20:44:35.316Z,100.00
2022-08-23T20:47:03.190Z,100.00
2022-08-23T20:49:29.755Z,100.00
2022-08-23T20:51:56.199Z,100.00
2022-08-23T20:54:22.481Z,100.00
2022-08-23T20:56:49.007Z,100.00
2022-08-23T20:59:15.244Z,100.00
2022-08-23T21:01:41.569Z,100.00
2022-08-23T21:04:07.881Z,100.00
2022-08-23T21:06:34.167Z,100.00
2022-08-23T21:09:00.415Z,100.00
2022-08-23T21:11:26.656Z,100.00
2022-08-23T21:13:52.965Z,100.00
2022-08-23T21:16:19.374Z,100.00
2022-08-23T21:18:45.648Z,100.00
2022-08-23T21:21:11.886Z,100.00
2022-08-23T21:23:38.152Z,100.00
2022-08-23T21:26:04.387Z,100.00
2022-08-23T21:28:30.745Z,100.00
2022-08-23T21:30:57.114Z,100.00
2022-08-23T21:33:23.604Z,100.00
2022-08-23T21:35:49.925Z,100.00
2022-08-23T21:38:16.240Z,100.00
2022-08-23T21:40:42.776Z,100.00
2022-08-23T21:43:09.037Z,100.00
2022-08-23T21:45:35.268Z,100.00
2022-08-23T21:48:07.836Z,100.00
2022-08-23T21:50:34.344Z,100.00
2022-08-23T21:53:00.685Z,100.00
2022-08-23T21:55:35.988Z,100.00
2022-08-23T21:58:02.720Z,100.00
2022-08-23T22:00:29.025Z,100.00
2022-08-23T22:02:55.462Z,100.00
2022-08-23T22:05:21.756Z,100.00
2022-08-23T22:07:48.094Z,100.00
2022-08-23T22:10:14.829Z,100.00
2022-08-23T22:12:41.237Z,100.00
2022-08-23T22:15:07.504Z,100.00
2022-08-23T22:17:33.750Z,100.00
2022-08-23T22:20:00.051Z,100.00
2022-08-23T22:22:26.377Z,100.00
2022-08-23T22:24:52.606Z,100.00
2022-08-23T22:27:18.859Z,100.00
2022-08-23T22:29:46.457Z,100.00
2022-08-23T22:32:13.091Z,100.00
2022-08-23T22:34:39.468Z,100.00
2022-08-23T22:37:06.153Z,100.00
2022-08-23T22:39:32.453Z,100.00
2022-08-23T22:41:58.777Z,100.00
2022-08-23T22:44:25.232Z,100.00
2022-08-23T22:46:51.672Z,100.00
2022-08-23T22:49:18.130Z,100.00
2022-08-23T22:51:44.492Z,100.00
2022-08-23T22:54:10.957Z,100.00
2022-08-23T22:56:40.707Z,100.00
2022-08-23T22:59:07.066Z,100.00
2022-08-23T23:01:34.063Z,100.00
2022-08-23T23:04:00.847Z,100.00
2022-08-23T23:06:27.414Z,100.00
2022-08-23T23:08:53.817Z,100.00
2022-08-23T23:11:20.111Z,100.00
2022-08-23T23:13:46.558Z,100.00
2022-08-23T23:16:12.858Z,100.00
2022-08-23T23:18:39.226Z,100.00
2022-08-23T23:21:06.565Z,100.00
2022-08-23T23:23:32.895Z,100.00
2022-08-23T23:25:59.474Z,100.00
2022-08-23T23:28:25.763Z,100.00
2022-08-23T23:30:52.201Z,100.00
2022-08-23T23:33:18.533Z,100.00
2022-08-23T23:35:44.883Z,100.00
2022-08-23T23:38:11.302Z,100.00
2022-08-23T23:40:37.707Z,100.00
2022-08-23T23:43:04.041Z,100.00
2022-08-23T23:45:30.627Z,100.00
2022-08-23T23:47:57.173Z,100.00
2022-08-23T23:50:23.482Z,100.00
2022-08-23T23:52:49.977Z,100.00
2022-08-23T23:55:16.419Z,100.00
2022-08-23T23:57:42.840Z,100.00
